sensor_id;sensor_type;location;lat;lon;timestamp;pressure;altitude;pressure_sealevel;temperature;humidity
25430;BME280;13360;48.152;-1.788;2022-12-24T00:01:18;102875.81;;;14.21;100.00
25430;BME280;13360;48.152;-1.788;2022-12-24T00:03:44;102901.13;;;14.29;100.00
25430;BME280;13360;48.152;-1.788;2022-12-24T00:06:15;102917.53;;;14.31;100.00
25430;BME280;13360;48.152;-1.788;2022-12-24T00:08:41;102909.75;;;14.33;100.00
25430;BME280;13360;48.152;-1.788;2022-12-24T00:11:06;102925.91;;;14.36;100.00
25430;BME280;13360;48.152;-1.788;2022-12-24T00:13:32;102908.38;;;14.35;100.00
25430;BME280;13360;48.152;-1.788;2022-12-24T00:15:57;102890.31;;;14.33;100.00
25430;BME280;13360;48.152;-1.788;2022-12-24T00:18:23;102886.41;;;14.29;100.00
25430;BME280;13360;48.152;-1.788;2022-12-24T00:20:49;102895.28;;;14.31;100.00
25430;BME280;13360;48.152;-1.788;2022-12-24T00:23:15;102894.19;;;14.32;100.00
25430;BME280;13360;48.152;-1.788;2022-12-24T00:25:41;102889.47;;;14.32;100.00
25430;BME280;13360;48.152;-1.788;2022-12-24T00:28:06;102886.69;;;14.32;100.00
25430;BME280;13360;48.152;-1.788;2022-12-24T00:30:31;102853.03;;;14.24;100.00
25430;BME280;13360;48.152;-1.788;2022-12-24T00:32:57;102863.31;;;14.28;100.00
25430;BME280;13360;48.152;-1.788;2022-12-24T00:35:22;102883.34;;;14.30;100.00
25430;BME280;13360;48.152;-1.788;2022-12-24T00:37:49;102887.25;;;14.34;100.00
25430;BME280;13360;48.152;-1.788;2022-12-24T00:40:15;102890.88;;;14.35;100.00
25430;BME280;13360;48.152;-1.788;2022-12-24T00:42:41;102879.75;;;14.35;100.00
25430;BME280;13360;48.152;-1.788;2022-12-24T00:45:07;102861.66;;;14.32;100.00
25430;BME280;13360;48.152;-1.788;2022-12-24T00:47:32;102846.94;;;14.32;100.00
25430;BME280;13360;48.152;-1.788;2022-12-24T00:49:58;102856.38;;;14.31;100.00
25430;BME280;13360;48.152;-1.788;2022-12-24T00:52:23;102843.59;;;14.30;100.00
25430;BME280;13360;48.152;-1.788;2022-12-24T00:54:48;102836.63;;;14.27;100.00
25430;BME280;13360;48.152;-1.788;2022-12-24T00:57:14;102807.16;;;14.21;100.00
25430;BME280;13360;48.152;-1.788;2022-12-24T00:59:39;102803.25;;;14.22;100.00
25430;BME280;13360;48.152;-1.788;2022-12-24T01:02:04;102791.53;;;14.15;100.00
25430;BME280;13360;48.152;-1.788;2022-12-24T01:04:30;102791.53;;;14.15;100.00
25430;BME280;13360;48.152;-1.788;2022-12-24T01:07:14;102816.88;;;14.19;100.00
25430;BME280;13360;48.152;-1.788;2022-12-24T01:09:39;102805.69;;;14.14;100.00
25430;BME280;13360;48.152;-1.788;2022-12-24T01:12:04;102811.81;;;14.16;100.00
25430;BME280;13360;48.152;-1.788;2022-12-24T01:14:30;102818.81;;;14.18;100.00
25430;BME280;13360;48.152;-1.788;2022-12-24T01:16:55;102822.44;;;14.19;100.00
25430;BME280;13360;48.152;-1.788;2022-12-24T01:19:20;102821.03;;;14.16;100.00
25430;BME280;13360;48.152;-1.788;2022-12-24T01:21:46;102827.44;;;14.17;100.00
25430;BME280;13360;48.152;-1.788;2022-12-24T01:24:15;102826.25;;;14.13;100.00
25430;BME280;13360;48.152;-1.788;2022-12-24T01:26:41;102842.09;;;14.12;100.00
25430;BME280;13360;48.152;-1.788;2022-12-24T01:29:06;102856.56;;;14.14;100.00
25430;BME280;13360;48.152;-1.788;2022-12-24T01:31:32;102881.31;;;14.16;100.00
25430;BME280;13360;48.152;-1.788;2022-12-24T01:33:57;102899.13;;;14.20;100.00
25430;BME280;13360;48.152;-1.788;2022-12-24T01:36:22;102915.28;;;14.23;100.00
25430;BME280;13360;48.152;-1.788;2022-12-24T01:38:48;102919.16;;;14.22;100.00
25430;BME280;13360;48.152;-1.788;2022-12-24T01:41:19;102891.84;;;14.09;100.00
25430;BME280;13360;48.152;-1.788;2022-12-24T01:44:23;102929.91;;;14.08;100.00
25430;BME280;13360;48.152;-1.788;2022-12-24T01:46:53;102944.59;;;14.03;100.00
25430;BME280;13360;48.152;-1.788;2022-12-24T01:49:20;102977.41;;;14.07;100.00
25430;BME280;13360;48.152;-1.788;2022-12-24T01:51:50;102973.50;;;14.02;100.00
25430;BME280;13360;48.152;-1.788;2022-12-24T01:54:28;102987.94;;;13.99;100.00
25430;BME280;13360;48.152;-1.788;2022-12-24T01:57:03;102993.22;;;14.01;100.00
25430;BME280;13360;48.152;-1.788;2022-12-24T01:59:29;103004.63;;;14.04;100.00
25430;BME280;13360;48.152;-1.788;2022-12-24T02:01:55;103014.94;;;14.09;100.00
25430;BME280;13360;48.152;-1.788;2022-12-24T02:04:39;103024.69;;;14.12;100.00
25430;BME280;13360;48.152;-1.788;2022-12-24T02:07:06;103008.81;;;14.07;100.00
25430;BME280;13360;48.152;-1.788;2022-12-24T02:09:33;103016.31;;;14.07;100.00
25430;BME280;13360;48.152;-1.788;2022-12-24T02:12:00;103043.31;;;14.11;100.00
25430;BME280;13360;48.152;-1.788;2022-12-24T02:14:26;103059.19;;;14.16;100.00
25430;BME280;13360;48.152;-1.788;2022-12-24T02:19:40;103078.13;;;14.19;100.00
25430;BME280;13360;48.152;-1.788;2022-12-24T02:24:59;103097.38;;;14.25;100.00
25430;BME280;13360;48.152;-1.788;2022-12-24T02:27:32;103104.06;;;14.29;100.00
25430;BME280;13360;48.152;-1.788;2022-12-24T02:30:06;103109.34;;;14.31;100.00
25430;BME280;13360;48.152;-1.788;2022-12-24T02:35:33;103111.50;;;14.19;100.00
25430;BME280;13360;48.152;-1.788;2022-12-24T02:38:07;103131.25;;;14.22;100.00
25430;BME280;13360;48.152;-1.788;2022-12-24T02:41:29;103129.00;;;14.19;100.00
25430;BME280;13360;48.152;-1.788;2022-12-24T02:43:49;103144.06;;;14.23;100.00
25430;BME280;13360;48.152;-1.788;2022-12-24T02:46:21;103157.94;;;14.23;100.00
25430;BME280;13360;48.152;-1.788;2022-12-24T02:48:48;103165.19;;;14.24;100.00
25430;BME280;13360;48.152;-1.788;2022-12-24T02:51:15;103175.78;;;14.27;100.00
25430;BME280;13360;48.152;-1.788;2022-12-24T02:53:41;103177.72;;;14.27;100.00
25430;BME280;13360;48.152;-1.788;2022-12-24T02:56:23;103182.44;;;14.26;100.00
25430;BME280;13360;48.152;-1.788;2022-12-24T03:07:20;103225.56;;;14.29;100.00
25430;BME280;13360;48.152;-1.788;2022-12-24T03:10:13;103230.00;;;14.30;100.00
25430;BME280;13360;48.152;-1.788;2022-12-24T03:12:43;103228.59;;;14.27;100.00
25430;BME280;13360;48.152;-1.788;2022-12-24T03:15:13;103241.13;;;14.30;100.00
25430;BME280;13360;48.152;-1.788;2022-12-24T03:17:42;103245.00;;;14.29;100.00
25430;BME280;13360;48.152;-1.788;2022-12-24T03:20:10;103242.22;;;14.29;100.00
25430;BME280;13360;48.152;-1.788;2022-12-24T03:22:37;103250.25;;;14.25;100.00
25430;BME280;13360;48.152;-1.788;2022-12-24T03:25:03;103248.88;;;14.28;100.00
25430;BME280;13360;48.152;-1.788;2022-12-24T03:27:30;103243.03;;;14.24;100.00
25430;BME280;13360;48.152;-1.788;2022-12-24T03:29:57;103243.50;;;14.16;100.00
25430;BME280;13360;48.152;-1.788;2022-12-24T03:32:24;103249.28;;;14.15;100.00
25430;BME280;13360;48.152;-1.788;2022-12-24T03:34:52;103248.19;;;14.16;100.00
25430;BME280;13360;48.152;-1.788;2022-12-24T03:37:17;103250.72;;;14.17;100.00
25430;BME280;13360;48.152;-1.788;2022-12-24T03:39:43;103235.34;;;14.10;100.00
25430;BME280;13360;48.152;-1.788;2022-12-24T03:42:08;103236.75;;;14.12;100.00
25430;BME280;13360;48.152;-1.788;2022-12-24T03:44:33;103241.56;;;14.17;100.00
25430;BME280;13360;48.152;-1.788;2022-12-24T03:46:59;103249.38;;;14.20;100.00
25430;BME280;13360;48.152;-1.788;2022-12-24T03:49:24;103225.44;;;14.19;100.00
25430;BME280;13360;48.152;-1.788;2022-12-24T03:51:49;103222.69;;;14.19;100.00
25430;BME280;13360;48.152;-1.788;2022-12-24T03:54:15;103209.28;;;14.16;100.00
25430;BME280;13360;48.152;-1.788;2022-12-24T03:56:40;103208.69;;;14.14;100.00
25430;BME280;13360;48.152;-1.788;2022-12-24T03:59:05;103199.53;;;14.13;100.00
25430;BME280;13360;48.152;-1.788;2022-12-24T04:01:30;103182.53;;;14.10;100.00
25430;BME280;13360;48.152;-1.788;2022-12-24T04:03:56;103174.72;;;14.07;100.00
25430;BME280;13360;48.152;-1.788;2022-12-24T04:06:21;103174.69;;;14.01;100.00
25430;BME280;13360;48.152;-1.788;2022-12-24T04:08:46;103185.53;;;14.03;100.00
25430;BME280;13360;48.152;-1.788;2022-12-24T04:11:14;103196.97;;;14.07;100.00
25430;BME280;13360;48.152;-1.788;2022-12-24T04:13:39;103197.44;;;13.98;100.00
25430;BME280;13360;48.152;-1.788;2022-12-24T04:16:07;103204.09;;;13.97;100.00
25430;BME280;13360;48.152;-1.788;2022-12-24T04:18:34;103211.06;;;14.00;100.00
25430;BME280;13360;48.152;-1.788;2022-12-24T04:20:59;103209.56;;;13.92;100.00
25430;BME280;13360;48.152;-1.788;2022-12-24T04:23:25;103236.00;;;13.95;100.00
25430;BME280;13360;48.152;-1.788;2022-12-24T04:25:50;103229.75;;;13.83;100.00
25430;BME280;13360;48.152;-1.788;2022-12-24T04:28:16;103266.22;;;13.91;100.00
25430;BME280;13360;48.152;-1.788;2022-12-24T04:30:43;103277.88;;;13.88;100.00
25430;BME280;13360;48.152;-1.788;2022-12-24T04:33:08;103283.44;;;13.88;100.00
25430;BME280;13360;48.152;-1.788;2022-12-24T04:35:38;103289.31;;;13.92;100.00
25430;BME280;13360;48.152;-1.788;2022-12-24T04:38:04;103298.56;;;13.97;100.00
25430;BME280;13360;48.152;-1.788;2022-12-24T04:40:29;103297.13;;;13.95;100.00
25430;BME280;13360;48.152;-1.788;2022-12-24T04:42:55;103303.03;;;13.98;100.00
25430;BME280;13360;48.152;-1.788;2022-12-24T04:45:20;103297.13;;;13.95;100.00
25430;BME280;13360;48.152;-1.788;2022-12-24T04:47:45;103302.44;;;13.96;100.00
25430;BME280;13360;48.152;-1.788;2022-12-24T04:50:11;103288.41;;;13.86;100.00
25430;BME280;13360;48.152;-1.788;2022-12-24T04:52:36;103311.28;;;13.93;100.00
25430;BME280;13360;48.152;-1.788;2022-12-24T04:55:02;103304.88;;;13.93;100.00
25430;BME280;13360;48.152;-1.788;2022-12-24T04:57:30;103319.34;;;13.95;100.00
25430;BME280;13360;48.152;-1.788;2022-12-24T04:59:56;103336.38;;;13.98;100.00
25430;BME280;13360;48.152;-1.788;2022-12-24T05:02:21;103344.72;;;13.98;100.00
25430;BME280;13360;48.152;-1.788;2022-12-24T05:04:47;103341.25;;;13.91;100.00
25430;BME280;13360;48.152;-1.788;2022-12-24T05:07:12;103349.69;;;13.96;100.00
25430;BME280;13360;48.152;-1.788;2022-12-24T05:09:37;103373.50;;;13.92;100.00
25430;BME280;13360;48.152;-1.788;2022-12-24T05:12:03;103395.56;;;13.99;100.00
25430;BME280;13360;48.152;-1.788;2022-12-24T05:14:28;103397.50;;;13.98;100.00
25430;BME280;13360;48.152;-1.788;2022-12-24T05:16:53;103410.31;;;13.99;100.00
25430;BME280;13360;48.152;-1.788;2022-12-24T05:19:19;103414.69;;;13.95;100.00
25430;BME280;13360;48.152;-1.788;2022-12-24T05:21:44;103425.31;;;13.98;100.00
25430;BME280;13360;48.152;-1.788;2022-12-24T05:24:29;103435.06;;;14.01;100.00
25430;BME280;13360;48.152;-1.788;2022-12-24T05:27:13;103438.09;;;13.99;100.00
25430;BME280;13360;48.152;-1.788;2022-12-24T05:29:39;103430.75;;;13.93;100.00
25430;BME280;13360;48.152;-1.788;2022-12-24T05:32:04;103449.03;;;13.89;100.00
25430;BME280;13360;48.152;-1.788;2022-12-24T05:34:29;103458.53;;;13.93;100.00
25430;BME280;13360;48.152;-1.788;2022-12-24T05:36:54;103463.00;;;13.94;100.00
25430;BME280;13360;48.152;-1.788;2022-12-24T05:39:20;103459.16;;;13.95;100.00
25430;BME280;13360;48.152;-1.788;2022-12-24T05:41:45;103472.09;;;13.90;100.00
25430;BME280;13360;48.152;-1.788;2022-12-24T05:44:11;103468.47;;;13.89;100.00
25430;BME280;13360;48.152;-1.788;2022-12-24T05:46:36;103474.28;;;13.88;100.00
25430;BME280;13360;48.152;-1.788;2022-12-24T05:49:02;103478.16;;;13.87;100.00
25430;BME280;13360;48.152;-1.788;2022-12-24T05:51:27;103479.34;;;13.91;100.00
25430;BME280;13360;48.152;-1.788;2022-12-24T05:53:52;103484.38;;;13.94;100.00
25430;BME280;13360;48.152;-1.788;2022-12-24T05:56:20;103483.53;;;13.93;100.00
25430;BME280;13360;48.152;-1.788;2022-12-24T05:58:46;103489.09;;;13.93;100.00
25430;BME280;13360;48.152;-1.788;2022-12-24T06:01:13;103483.22;;;13.90;100.00
25430;BME280;13360;48.152;-1.788;2022-12-24T06:03:38;103502.75;;;13.95;100.00
25430;BME280;13360;48.152;-1.788;2022-12-24T06:08:31;103503.50;;;13.90;100.00
25430;BME280;13360;48.152;-1.788;2022-12-24T06:10:59;103518.56;;;13.94;100.00
25430;BME280;13360;48.152;-1.788;2022-12-24T06:13:24;103520.44;;;13.89;100.00
25430;BME280;13360;48.152;-1.788;2022-12-24T06:15:53;103528.50;;;13.90;100.00
25430;BME280;13360;48.152;-1.788;2022-12-24T06:18:18;103523.38;;;13.82;100.00
25430;BME280;13360;48.152;-1.788;2022-12-24T06:20:44;103548.47;;;13.87;100.00
25430;BME280;13360;48.152;-1.788;2022-12-24T06:23:09;103538.97;;;13.83;100.00
25430;BME280;13360;48.152;-1.788;2022-12-24T06:25:34;103545.03;;;13.80;100.00
25430;BME280;13360;48.152;-1.788;2022-12-24T06:28:00;103549.50;;;13.81;100.00
25430;BME280;13360;48.152;-1.788;2022-12-24T06:30:25;103556.22;;;13.85;100.00
25430;BME280;13360;48.152;-1.788;2022-12-24T06:32:50;103536.94;;;13.79;100.00
25430;BME280;13360;48.152;-1.788;2022-12-24T06:35:16;103528.16;;;13.70;100.00
25430;BME280;13360;48.152;-1.788;2022-12-24T06:37:41;103550.59;;;13.80;100.00
25430;BME280;13360;48.152;-1.788;2022-12-24T06:40:07;103558.91;;;13.80;100.00
25430;BME280;13360;48.152;-1.788;2022-12-24T06:42:32;103550.59;;;13.80;100.00
25430;BME280;13360;48.152;-1.788;2022-12-24T06:44:58;103552.00;;;13.83;100.00
25430;BME280;13360;48.152;-1.788;2022-12-24T06:47:23;103544.53;;;13.83;100.00
25430;BME280;13360;48.152;-1.788;2022-12-24T06:49:49;103533.16;;;13.85;100.00
25430;BME280;13360;48.152;-1.788;2022-12-24T06:52:14;103525.41;;;13.87;100.00
25430;BME280;13360;48.152;-1.788;2022-12-24T06:54:39;103513.72;;;13.85;100.00
25430;BME280;13360;48.152;-1.788;2022-12-24T06:57:05;103509.00;;;13.85;100.00
25430;BME280;13360;48.152;-1.788;2022-12-24T06:59:31;103491.72;;;13.83;100.00
25430;BME280;13360;48.152;-1.788;2022-12-24T07:01:56;103472.28;;;13.83;100.00
25430;BME280;13360;48.152;-1.788;2022-12-24T07:04:22;103452.50;;;13.80;100.00
25430;BME280;13360;48.152;-1.788;2022-12-24T07:06:47;103431.13;;;13.80;100.00
25430;BME280;13360;48.152;-1.788;2022-12-24T07:09:12;103429.50;;;13.84;100.00
25430;BME280;13360;48.152;-1.788;2022-12-24T07:11:38;103414.53;;;13.85;100.00
25430;BME280;13360;48.152;-1.788;2022-12-24T07:14:04;103396.69;;;13.81;100.00
25430;BME280;13360;48.152;-1.788;2022-12-24T07:16:29;103380.53;;;13.78;100.00
25430;BME280;13360;48.152;-1.788;2022-12-24T07:18:54;103381.69;;;13.82;100.00
25430;BME280;13360;48.152;-1.788;2022-12-24T07:21:20;103382.03;;;13.86;100.00
25430;BME280;13360;48.152;-1.788;2022-12-24T07:23:45;103364.50;;;13.85;100.00
25430;BME280;13360;48.152;-1.788;2022-12-24T07:26:10;103359.53;;;13.87;100.00
25430;BME280;13360;48.152;-1.788;2022-12-24T07:28:36;103345.59;;;13.82;100.00
25430;BME280;13360;48.152;-1.788;2022-12-24T07:31:01;103352.56;;;13.85;100.00
25430;BME280;13360;48.152;-1.788;2022-12-24T07:33:27;103355.09;;;13.86;100.00
25430;BME280;13360;48.152;-1.788;2022-12-24T07:35:57;103347.78;;;13.80;100.00
25430;BME280;13360;48.152;-1.788;2022-12-24T07:38:23;103347.72;;;13.75;100.00
25430;BME280;13360;48.152;-1.788;2022-12-24T07:40:48;103375.31;;;13.82;100.00
25430;BME280;13360;48.152;-1.788;2022-12-24T07:43:14;103375.63;;;13.85;100.00
25430;BME280;13360;48.152;-1.788;2022-12-24T07:45:39;103367.88;;;13.87;100.00
25430;BME280;13360;48.152;-1.788;2022-12-24T07:48:04;103362.31;;;13.87;100.00
25430;BME280;13360;48.152;-1.788;2022-12-24T07:50:30;103355.09;;;13.86;100.00
25430;BME280;13360;48.152;-1.788;2022-12-24T07:52:55;103367.03;;;13.87;100.00
25430;BME280;13360;48.152;-1.788;2022-12-24T07:55:20;103366.78;;;13.88;100.00
25430;BME280;13360;48.152;-1.788;2022-12-24T07:57:46;103372.34;;;13.88;100.00
25430;BME280;13360;48.152;-1.788;2022-12-24T08:00:11;103371.22;;;13.89;100.00
25430;BME280;13360;48.152;-1.788;2022-12-24T08:02:37;103369.56;;;13.88;100.00
25430;BME280;13360;48.152;-1.788;2022-12-24T08:05:03;103366.19;;;13.86;100.00
25430;BME280;13360;48.152;-1.788;2022-12-24T08:07:28;103361.22;;;13.88;100.00
25430;BME280;13360;48.152;-1.788;2022-12-24T08:09:53;103374.84;;;13.90;100.00
25430;BME280;13360;48.152;-1.788;2022-12-24T08:12:19;103382.34;;;13.89;100.00
25430;BME280;13360;48.152;-1.788;2022-12-24T08:14:44;103396.25;;;13.89;100.00
25430;BME280;13360;48.152;-1.788;2022-12-24T08:17:09;103383.38;;;13.83;100.00
25430;BME280;13360;48.152;-1.788;2022-12-24T08:19:35;103406.78;;;13.87;100.00
25430;BME280;13360;48.152;-1.788;2022-12-24T08:22:00;103417.88;;;13.87;100.00
25430;BME280;13360;48.152;-1.788;2022-12-24T08:24:25;103431.53;;;13.89;100.00
25430;BME280;13360;48.152;-1.788;2022-12-24T08:26:51;103440.69;;;13.89;100.00
25430;BME280;13360;48.152;-1.788;2022-12-24T08:29:16;103444.84;;;13.87;100.00
25430;BME280;13360;48.152;-1.788;2022-12-24T08:31:41;103472.69;;;13.92;100.00
25430;BME280;13360;48.152;-1.788;2022-12-24T08:34:07;103478.00;;;13.93;100.00
25430;BME280;13360;48.152;-1.788;2022-12-24T08:36:33;103490.78;;;13.94;100.00
25430;BME280;13360;48.152;-1.788;2022-12-24T08:38:59;103504.69;;;13.94;100.00
25430;BME280;13360;48.152;-1.788;2022-12-24T08:41:30;103511.69;;;13.97;100.00
25430;BME280;13360;48.152;-1.788;2022-12-24T08:43:56;103518.56;;;13.94;100.00
25430;BME280;13360;48.152;-1.788;2022-12-24T08:46:21;103538.41;;;13.98;100.00
25430;BME280;13360;48.152;-1.788;2022-12-24T08:48:47;103551.44;;;13.97;100.00
25430;BME280;13360;48.152;-1.788;2022-12-24T08:51:12;103580.91;;;13.98;100.00
25430;BME280;13360;48.152;-1.788;2022-12-24T08:53:38;103597.94;;;14.02;100.00
25430;BME280;13360;48.152;-1.788;2022-12-24T08:56:06;103599.28;;;13.99;100.00
25430;BME280;13360;48.152;-1.788;2022-12-24T08:58:32;103627.06;;;13.99;100.00
25430;BME280;13360;48.152;-1.788;2022-12-24T09:00:58;103630.09;;;13.98;100.00
25430;BME280;13360;48.152;-1.788;2022-12-24T09:03:23;103650.47;;;14.03;100.00
25430;BME280;13360;48.152;-1.788;2022-12-24T09:05:49;103660.75;;;14.03;100.00
25430;BME280;13360;48.152;-1.788;2022-12-24T09:08:14;103668.00;;;14.04;100.00
25430;BME280;13360;48.152;-1.788;2022-12-24T09:10:39;103686.38;;;14.05;100.00
25430;BME280;13360;48.152;-1.788;2022-12-24T09:13:05;103684.19;;;14.07;100.00
25430;BME280;13360;48.152;-1.788;2022-12-24T09:15:30;103686.72;;;14.09;100.00
25430;BME280;13360;48.152;-1.788;2022-12-24T09:17:56;103691.66;;;14.07;100.00
25430;BME280;13360;48.152;-1.788;2022-12-24T09:20:21;103690.25;;;14.04;100.00
25430;BME280;13360;48.152;-1.788;2022-12-24T09:22:48;103703.88;;;14.06;100.00
25430;BME280;13360;48.152;-1.788;2022-12-24T09:25:13;103703.03;;;14.05;100.00
25430;BME280;13360;48.152;-1.788;2022-12-24T09:27:39;103714.75;;;14.07;100.00
25430;BME280;13360;48.152;-1.788;2022-12-24T09:30:06;103714.41;;;14.03;100.00
25430;BME280;13360;48.152;-1.788;2022-12-24T09:32:32;103722.25;;;14.07;100.00
25430;BME280;13360;48.152;-1.788;2022-12-24T09:34:58;103729.75;;;14.06;100.00
25430;BME280;13360;48.152;-1.788;2022-12-24T09:37:24;103724.03;;;13.84;100.00
25430;BME280;13360;48.152;-1.788;2022-12-24T09:39:49;103748.44;;;13.82;100.00
25430;BME280;13360;48.152;-1.788;2022-12-24T09:49:56;103796.16;;;13.79;100.00
25430;BME280;13360;48.152;-1.788;2022-12-24T09:52:29;103809.81;;;13.81;100.00
25430;BME280;13360;48.152;-1.788;2022-12-24T09:55:04;103826.59;;;13.86;100.00
25430;BME280;13360;48.152;-1.788;2022-12-24T09:57:35;103844.47;;;13.90;100.00
25430;BME280;13360;48.152;-1.788;2022-12-24T10:00:02;103850.38;;;13.93;100.00
25430;BME280;13360;48.152;-1.788;2022-12-24T10:02:27;103865.94;;;13.94;100.00
25430;BME280;13360;48.152;-1.788;2022-12-24T10:04:53;103859.19;;;13.90;100.00
25430;BME280;13360;48.152;-1.788;2022-12-24T10:12:55;103866.94;;;13.88;100.00
25430;BME280;13360;48.152;-1.788;2022-12-24T10:21:12;103878.41;;;13.92;100.00
25430;BME280;13360;48.152;-1.788;2022-12-24T10:26:45;103867.88;;;13.94;100.00
25430;BME280;13360;48.152;-1.788;2022-12-24T10:29:22;103870.06;;;13.92;100.00
25430;BME280;13360;48.152;-1.788;2022-12-24T10:32:26;103862.13;;;13.95;100.00
25430;BME280;13360;48.152;-1.788;2022-12-24T10:34:58;103854.84;;;13.94;100.00
25430;BME280;13360;48.152;-1.788;2022-12-24T10:37:27;103851.44;;;13.92;100.00
25430;BME280;13360;48.152;-1.788;2022-12-24T10:39:54;103854.38;;;13.97;100.00
25430;BME280;13360;48.152;-1.788;2022-12-24T10:42:22;103851.94;;;14.01;100.00
25430;BME280;13360;48.152;-1.788;2022-12-24T10:44:51;103860.38;;;14.06;100.00
25430;BME280;13360;48.152;-1.788;2022-12-24T10:47:20;103830.56;;;14.01;100.00
25430;BME280;13360;48.152;-1.788;2022-12-24T10:49:49;103825.34;;;14.05;100.00
25430;BME280;13360;48.152;-1.788;2022-12-24T10:52:24;103808.41;;;14.07;100.00
25430;BME280;13360;48.152;-1.788;2022-12-24T10:55:11;103791.50;;;14.08;100.00
25430;BME280;13360;48.152;-1.788;2022-12-24T10:58:05;103786.44;;;14.05;100.00
25430;BME280;13360;48.152;-1.788;2022-12-24T11:00:31;103775.81;;;14.02;100.00
25430;BME280;13360;48.152;-1.788;2022-12-24T11:03:20;103788.47;;;14.10;100.00
25430;BME280;13360;48.152;-1.788;2022-12-24T11:08:25;103772.50;;;14.17;100.00
25430;BME280;13360;48.152;-1.788;2022-12-24T11:11:02;103766.94;;;14.17;100.00
25430;BME280;13360;48.152;-1.788;2022-12-24T11:18:27;103744.56;;;14.12;100.00
25430;BME280;13360;48.152;-1.788;2022-12-24T11:20:53;103734.06;;;14.14;100.00
25430;BME280;13360;48.152;-1.788;2022-12-24T11:23:19;103715.44;;;14.14;100.00
25430;BME280;13360;48.152;-1.788;2022-12-24T11:25:48;103691.75;;;14.12;100.00
25430;BME280;13360;48.152;-1.788;2022-12-24T11:31:03;103657.91;;;14.15;100.00
25430;BME280;13360;48.152;-1.788;2022-12-24T11:33:30;103640.88;;;14.11;100.00
25430;BME280;13360;48.152;-1.788;2022-12-24T11:36:01;103619.66;;;14.05;100.00
25430;BME280;13360;48.152;-1.788;2022-12-24T11:38:28;103604.84;;;13.99;100.00
25430;BME280;13360;48.152;-1.788;2022-12-24T11:41:07;103621.69;;;14.10;100.00
25430;BME280;13360;48.152;-1.788;2022-12-24T11:43:37;103606.75;;;14.16;100.00
25430;BME280;13360;48.152;-1.788;2022-12-24T11:46:17;103591.88;;;14.22;100.00
25430;BME280;13360;48.152;-1.788;2022-12-24T11:48:43;103558.66;;;14.15;100.00
25430;BME280;13360;48.152;-1.788;2022-12-24T11:51:22;103529.63;;;14.06;100.00
25430;BME280;13360;48.152;-1.788;2022-12-24T11:53:52;103512.69;;;14.08;100.00
25430;BME280;13360;48.152;-1.788;2022-12-24T11:56:36;103510.09;;;14.18;100.00
25430;BME280;13360;48.152;-1.788;2022-12-24T11:59:22;103448.53;;;13.92;100.00
25430;BME280;13360;48.152;-1.788;2022-12-24T12:01:54;103429.06;;;13.92;100.00
25430;BME280;13360;48.152;-1.788;2022-12-24T12:04:24;103428.41;;;14.02;100.00
25430;BME280;13360;48.152;-1.788;2022-12-24T12:06:55;103417.94;;;14.09;100.00
25430;BME280;13360;48.152;-1.788;2022-12-24T12:09:32;103392.41;;;14.12;100.00
25430;BME280;13360;48.152;-1.788;2022-12-24T12:12:05;103369.41;;;14.17;100.00
25430;BME280;13360;48.152;-1.788;2022-12-24T12:19:49;103272.88;;;13.90;100.00
25430;BME280;13360;48.152;-1.788;2022-12-24T12:22:25;103276.59;;;13.96;100.00
25430;BME280;13360;48.152;-1.788;2022-12-24T12:24:55;103273.88;;;14.01;100.00
25430;BME280;13360;48.152;-1.788;2022-12-24T12:27:34;103273.03;;;14.00;100.00
25430;BME280;13360;48.152;-1.788;2022-12-24T12:30:11;103282.28;;;14.06;100.00
25430;BME280;13360;48.152;-1.788;2022-12-24T12:32:44;103275.97;;;14.16;100.00
25430;BME280;13360;48.152;-1.788;2022-12-24T12:37:45;103265.22;;;14.19;100.00
25430;BME280;13360;48.152;-1.788;2022-12-24T12:40:16;103267.50;;;14.27;100.00
25430;BME280;13360;48.152;-1.788;2022-12-24T12:42:52;103265.56;;;14.28;100.00
25430;BME280;13360;48.152;-1.788;2022-12-24T12:45:39;103276.13;;;14.26;100.00
25430;BME280;13360;48.152;-1.788;2022-12-24T12:48:15;103268.88;;;14.25;100.00
25430;BME280;13360;48.152;-1.788;2022-12-24T12:56:28;103288.06;;;14.26;100.00
25430;BME280;13360;48.152;-1.788;2022-12-24T13:01:31;103331.91;;;14.41;100.00
25430;BME280;13360;48.152;-1.788;2022-12-24T13:12:34;103279.47;;;14.28;100.00
25430;BME280;13360;48.152;-1.788;2022-12-24T13:23:08;103218.16;;;14.40;100.00
25430;BME280;13360;48.152;-1.788;2022-12-24T13:25:38;103189.97;;;14.31;100.00
25430;BME280;13360;48.152;-1.788;2022-12-24T13:28:30;103177.44;;;14.28;100.00
25430;BME280;13360;48.152;-1.788;2022-12-24T13:36:14;103168.38;;;14.38;100.00
25430;BME280;13360;48.152;-1.788;2022-12-24T13:38:55;103180.66;;;14.42;100.00
25430;BME280;13360;48.152;-1.788;2022-12-24T13:49:40;103281.09;;;14.24;100.00
25430;BME280;13360;48.152;-1.788;2022-12-24T14:02:49;103387.44;;;14.36;100.00
25430;BME280;13360;48.152;-1.788;2022-12-24T14:05:23;103376.31;;;14.36;100.00
25430;BME280;13360;48.152;-1.788;2022-12-24T14:07:52;103362.69;;;14.34;100.00
25430;BME280;13360;48.152;-1.788;2022-12-24T14:10:22;103354.59;;;14.33;100.00
25430;BME280;13360;48.152;-1.788;2022-12-24T14:12:50;103355.38;;;14.28;100.00
25430;BME280;13360;48.152;-1.788;2022-12-24T14:15:57;103342.00;;;14.25;100.00
25430;BME280;13360;48.152;-1.788;2022-12-24T14:18:24;103349.81;;;14.28;100.00
25430;BME280;13360;48.152;-1.788;2022-12-24T14:20:52;103338.38;;;14.25;100.00
25430;BME280;13360;48.152;-1.788;2022-12-24T14:25:52;103314.41;;;14.19;100.00
25430;BME280;13360;48.152;-1.788;2022-12-24T14:28:33;103294.38;;;14.17;100.00